Time;durP1;ratioP1;P1;durP2;ratioP2;P2;SDS_P1;SDS_P2;PMS_P1;PMS_P2;Temp;Humidity;BMP_temperature;BMP_pressure;BME280_temperature;BME280_humidity;BME280_pressure;Samples;Min_cycle;Max_cycle;Signal;HPM_P1;HPM_P2
2021/09/11 00:01:52;;;;;;;96.20;44.60;;;18.50;99.90;;;;;;5070105;28;20048;-46
2021/09/11 00:04:18;;;;;;;103.88;49.63;;;18.60;99.90;;;;;;5071078;28;20131;-47
2021/09/11 00:06:44;;;;;;;92.03;45.58;;;18.60;99.90;;;;;;5068383;28;20054;-47
2021/09/11 00:09:10;;;;;;;122.22;51.85;;;18.50;99.90;;;;;;5070352;28;20504;-49
2021/09/11 00:11:37;;;;;;;140.63;52.50;;;18.60;99.90;;;;;;5069554;28;20048;-47
2021/09/11 00:14:03;;;;;;;141.77;53.45;;;18.60;99.90;;;;;;5068666;28;20048;-46
2021/09/11 00:16:29;;;;;;;114.85;51.10;;;18.60;99.90;;;;;;5070660;28;20058;-47
2021/09/11 00:18:56;;;;;;;121.90;55.22;;;18.60;99.90;;;;;;5068731;28;20071;-48
2021/09/11 00:21:22;;;;;;;125.60;55.38;;;18.60;99.90;;;;;;5068645;28;20064;-45
2021/09/11 00:23:48;;;;;;;117.38;53.85;;;18.60;99.90;;;;;;5069141;28;20829;-47
2021/09/11 00:26:14;;;;;;;131.52;54.95;;;18.60;99.90;;;;;;5075538;28;20059;-46
2021/09/11 00:28:40;;;;;;;109.82;54.70;;;18.60;99.90;;;;;;5069908;28;20113;-47
2021/09/11 00:31:07;;;;;;;129.70;56.80;;;18.60;99.90;;;;;;5069318;28;20056;-47
2021/09/11 00:33:33;;;;;;;96.10;52.50;;;18.60;99.90;;;;;;5069519;28;20857;-48
2021/09/11 00:35:59;;;;;;;97.45;53.38;;;18.60;99.90;;;;;;5070463;28;20056;-47
2021/09/11 00:38:25;;;;;;;99.35;52.83;;;18.60;99.90;;;;;;5069912;28;20048;-46
2021/09/11 00:40:51;;;;;;;107.63;52.42;;;18.60;99.90;;;;;;5068064;28;20064;-48
2021/09/11 00:43:25;;;;;;;81.57;46.72;;;18.60;99.90;;;;;;5069889;28;20049;-46
2021/09/11 00:45:51;;;;;;;84.65;47.85;;;18.70;99.90;;;;;;5070433;28;20059;-46
2021/09/11 00:48:18;;;;;;;87.38;50.53;;;18.70;99.90;;;;;;5068871;28;20417;-47
2021/09/11 00:50:45;;;;;;;80.22;50.25;;;18.60;99.90;;;;;;5073718;28;20060;-49
2021/09/11 00:53:13;;;;;;;85.72;50.22;;;18.60;99.90;;;;;;5069470;28;20048;-47
2021/09/11 00:55:43;;;;;;;84.80;50.10;;;18.60;99.90;;;;;;5067190;28;20071;-49
2021/09/11 00:58:09;;;;;;;86.97;50.17;;;18.60;99.90;;;;;;5077075;28;20056;-46
2021/09/11 01:00:35;;;;;;;87.05;49.85;;;18.60;99.90;;;;;;5068766;28;20619;-48
2021/09/11 01:03:01;;;;;;;91.20;51.33;;;18.60;99.90;;;;;;5056045;28;20053;-47
2021/09/11 01:05:27;;;;;;;109.15;54.20;;;18.50;99.90;;;;;;5048286;28;20060;-46
2021/09/11 01:07:54;;;;;;;92.82;51.97;;;18.60;99.90;;;;;;5063758;28;20527;-46
2021/09/11 01:10:20;;;;;;;97.25;50.83;;;18.50;99.90;;;;;;5068374;28;20417;-47
2021/09/11 01:12:47;;;;;;;107.50;53.38;;;18.50;99.90;;;;;;5068480;28;20081;-46
2021/09/11 01:15:13;;;;;;;89.82;51.33;;;18.50;99.90;;;;;;5067557;28;20059;-47
2021/09/11 01:17:42;;;;;;;112.35;55.35;;;18.50;99.90;;;;;;5067851;28;20544;-46
2021/09/11 01:20:09;;;;;;;101.15;54.88;;;18.50;99.90;;;;;;5068034;28;20059;-47
2021/09/11 01:22:35;;;;;;;110.28;54.13;;;18.40;99.90;;;;;;5066567;28;20055;-47
2021/09/11 01:25:04;;;;;;;101.03;53.75;;;18.40;99.90;;;;;;5067848;28;20049;-46
2021/09/11 01:27:31;;;;;;;122.13;55.72;;;18.30;99.90;;;;;;5069330;28;20089;-46
2021/09/11 01:30:03;;;;;;;115.28;56.13;;;18.30;99.90;;;;;;5078977;28;20511;-46
2021/09/11 01:32:30;;;;;;;100.35;53.13;;;18.30;99.90;;;;;;5068546;28;20045;-48
2021/09/11 01:34:56;;;;;;;114.78;53.47;;;18.20;99.90;;;;;;5067985;28;20052;-45
2021/09/11 01:37:22;;;;;;;96.72;53.03;;;18.20;99.90;;;;;;5066559;28;20052;-46
2021/09/11 01:39:49;;;;;;;112.18;53.85;;;18.20;99.90;;;;;;5085646;28;20127;-46
2021/09/11 01:42:21;;;;;;;122.25;54.42;;;18.10;99.90;;;;;;5068077;28;20135;-47
2021/09/11 01:44:51;;;;;;;;;;;18.10;99.90;;;;;;5068502;28;20102;-47
2021/09/11 01:47:17;;;;;;;144.60;56.13;;;18.00;99.90;;;;;;5066958;28;19978;-46
2021/09/11 01:49:44;;;;;;;130.98;54.55;;;18.10;99.90;;;;;;5066983;28;20092;-46
2021/09/11 01:52:11;;;;;;;123.18;54.50;;;18.10;99.90;;;;;;5063653;28;20122;-46
2021/09/11 01:54:40;;;;;;;139.50;57.92;;;18.00;99.90;;;;;;5066271;28;20132;-47
2021/09/11 01:57:07;;;;;;;123.05;52.63;;;17.90;99.90;;;;;;5069640;28;20389;-50
2021/09/11 01:59:34;;;;;;;125.85;55.28;;;17.90;99.90;;;;;;5067159;28;20496;-47
2021/09/11 02:02:00;;;;;;;145.13;56.45;;;17.80;99.90;;;;;;5065961;28;20118;-48
2021/09/11 02:04:26;;;;;;;147.77;56.35;;;17.80;99.90;;;;;;5066975;28;20478;-47
2021/09/11 02:06:52;;;;;;;110.00;52.97;;;17.80;99.90;;;;;;5066386;28;20057;-48
2021/09/11 02:09:18;;;;;;;117.82;54.08;;;17.80;99.90;;;;;;5062957;28;20049;-47
2021/09/11 02:11:44;;;;;;;143.27;55.35;;;17.80;99.90;;;;;;5051217;28;20116;-47
2021/09/11 02:14:10;;;;;;;121.40;54.03;;;17.80;99.90;;;;;;5066222;28;20279;-46
2021/09/11 02:16:36;;;;;;;124.97;55.65;;;17.70;99.90;;;;;;5065840;28;20676;-47
2021/09/11 02:19:03;;;;;;;129.65;58.50;;;17.70;99.90;;;;;;5067194;28;20528;-48
2021/09/11 02:21:29;;;;;;;136.23;56.72;;;17.70;99.90;;;;;;5066977;28;20539;-47
2021/09/11 02:23:55;;;;;;;151.32;58.13;;;17.80;99.90;;;;;;5070093;28;20141;-47
2021/09/11 02:26:21;;;;;;;117.15;57.63;;;17.80;99.90;;;;;;5067996;28;20084;-48
2021/09/11 02:28:47;;;;;;;109.63;55.08;;;17.70;99.90;;;;;;5067794;28;20055;-47
2021/09/11 02:31:14;;;;;;;111.13;55.50;;;17.70;99.90;;;;;;5068082;28;20061;-48
2021/09/11 02:33:43;;;;;;;133.80;59.53;;;17.70;99.90;;;;;;5067642;28;20237;-47
2021/09/11 02:36:09;;;;;;;126.72;59.70;;;17.60;99.90;;;;;;5066758;28;20059;-46
2021/09/11 02:38:36;;;;;;;132.02;60.72;;;17.70;99.90;;;;;;5067643;28;20048;-48
2021/09/11 02:41:02;;;;;;;153.07;64.15;;;17.70;99.90;;;;;;5067437;28;20063;-49
2021/09/11 02:43:28;;;;;;;112.38;59.33;;;17.60;99.90;;;;;;5067745;28;20049;-47
2021/09/11 02:45:56;;;;;;;127.93;61.97;;;17.70;99.90;;;;;;5067480;28;20078;-46
2021/09/11 02:48:22;;;;;;;119.78;60.13;;;17.70;99.90;;;;;;5067815;28;20044;-47
2021/09/11 02:50:48;;;;;;;96.00;56.33;;;17.60;99.90;;;;;;5065991;28;20049;-46
2021/09/11 02:53:14;;;;;;;78.68;51.25;;;17.70;99.90;;;;;;5067101;28;20158;-48
2021/09/11 02:55:40;;;;;;;81.05;52.65;;;17.70;99.90;;;;;;5067365;28;20057;-47
2021/09/11 02:58:06;;;;;;;81.13;51.28;;;17.70;99.90;;;;;;5068017;28;20048;-47
2021/09/11 03:00:32;;;;;;;59.47;43.85;;;17.70;99.90;;;;;;5067918;28;20127;-47
2021/09/11 03:02:59;;;;;;;64.43;45.33;;;17.70;99.90;;;;;;5066844;28;20109;-46
2021/09/11 03:05:25;;;;;;;59.20;41.90;;;17.80;99.90;;;;;;5066800;28;20051;-48
2021/09/11 03:07:51;;;;;;;51.60;38.60;;;17.70;99.90;;;;;;5066365;28;20109;-47
2021/09/11 03:10:17;;;;;;;57.72;39.63;;;17.70;99.90;;;;;;5067757;28;20064;-46
2021/09/11 03:12:43;;;;;;;48.92;36.70;;;17.70;99.90;;;;;;5067194;28;20057;-49
2021/09/11 03:15:09;;;;;;;51.17;37.75;;;17.70;99.90;;;;;;5072807;28;20113;-47
2021/09/11 03:17:36;;;;;;;47.33;35.97;;;17.70;99.90;;;;;;5071768;28;20060;-48
2021/09/11 03:20:03;;;;;;;48.83;35.83;;;17.70;99.90;;;;;;5071157;28;20052;-47
2021/09/11 03:22:29;;;;;;;45.40;35.22;;;17.70;99.90;;;;;;5067443;28;20496;-47
2021/09/11 03:24:55;;;;;;;42.42;31.80;;;17.70;99.90;;;;;;5055947;28;20465;-45
2021/09/11 03:27:21;;;;;;;38.97;31.77;;;17.60;99.90;;;;;;5069615;28;20060;-47
2021/09/11 03:29:47;;;;;;;38.33;30.95;;;17.60;99.90;;;;;;5071427;28;20086;-50
2021/09/11 03:32:13;;;;;;;39.20;30.50;;;17.50;99.90;;;;;;5071305;28;20056;-47
2021/09/11 03:34:39;;;;;;;39.10;31.85;;;17.50;99.90;;;;;;5071496;28;20048;-47
2021/09/11 03:37:05;;;;;;;36.88;27.83;;;17.50;99.90;;;;;;5070967;28;20417;-47
2021/09/11 03:39:31;;;;;;;36.78;28.42;;;17.50;99.90;;;;;;5070174;28;20067;-46
2021/09/11 03:41:57;;;;;;;36.88;25.92;;;17.50;99.90;;;;;;5070768;28;20052;-48
2021/09/11 03:44:23;;;;;;;32.53;24.63;;;17.40;99.90;;;;;;5070663;28;20432;-48
2021/09/11 03:46:49;;;;;;;28.63;23.02;;;17.30;99.90;;;;;;5068828;28;20049;-48
2021/09/11 03:49:15;;;;;;;28.00;21.08;;;17.30;99.90;;;;;;5068331;28;20048;-51
2021/09/11 03:51:41;;;;;;;26.80;21.05;;;17.30;99.90;;;;;;5071766;28;20159;-48
2021/09/11 03:54:07;;;;;;;30.05;22.33;;;17.20;99.90;;;;;;5069393;28;20675;-48
2021/09/11 03:56:33;;;;;;;31.90;23.10;;;17.20;99.90;;;;;;5069775;28;20057;-48
2021/09/11 03:58:59;;;;;;;31.95;23.90;;;17.10;99.90;;;;;;5069320;28;20048;-45
2021/09/11 04:01:25;;;;;;;29.70;23.05;;;17.10;99.90;;;;;;5070753;28;20401;-48
2021/09/11 04:03:51;;;;;;;30.27;23.38;;;17.10;99.90;;;;;;5072004;28;20063;-48
2021/09/11 04:06:17;;;;;;;32.08;23.63;;;17.00;99.90;;;;;;5090760;28;20079;-48
2021/09/11 04:08:43;;;;;;;34.00;23.67;;;17.00;99.90;;;;;;5068745;28;20060;-48
2021/09/11 04:11:09;;;;;;;46.10;26.20;;;17.00;99.90;;;;;;5070148;28;20640;-48
2021/09/11 04:13:35;;;;;;;36.92;27.05;;;16.90;99.90;;;;;;5066365;28;20048;-48
2021/09/11 04:16:01;;;;;;;36.20;25.25;;;16.90;99.90;;;;;;5063062;28;20044;-46
2021/09/11 04:18:27;;;;;;;39.97;28.73;;;16.90;99.90;;;;;;5054891;28;20510;-46
2021/09/11 04:20:53;;;;;;;41.15;28.67;;;16.90;99.90;;;;;;5057740;28;20101;-46
2021/09/11 04:23:19;;;;;;;41.17;29.83;;;16.80;99.90;;;;;;5057118;28;20049;-46
2021/09/11 04:25:45;;;;;;;51.90;32.50;;;16.80;99.90;;;;;;5054772;28;20048;-47
2021/09/11 04:28:12;;;;;;;53.53;34.53;;;16.70;99.90;;;;;;5052458;28;20057;-45
2021/09/11 04:30:38;;;;;;;56.47;36.65;;;16.70;99.90;;;;;;5062819;28;20055;-47
2021/09/11 04:33:04;;;;;;;59.47;37.45;;;16.70;99.90;;;;;;5058430;28;20088;-49
2021/09/11 04:35:30;;;;;;;62.30;39.22;;;16.70;99.90;;;;;;5064505;28;20049;-47
2021/09/11 04:37:57;;;;;;;62.33;38.75;;;16.60;99.90;;;;;;5054427;28;20103;-48
2021/09/11 04:40:24;;;;;;;61.50;40.20;;;16.60;99.90;;;;;;5064502;28;20129;-48
2021/09/11 04:42:51;;;;;;;62.47;41.08;;;16.60;99.90;;;;;;5059505;28;20068;-48
2021/09/11 04:45:17;;;;;;;60.58;38.58;;;16.60;99.90;;;;;;5060282;28;20752;-50
2021/09/11 04:47:43;;;;;;;61.95;38.83;;;16.50;99.90;;;;;;5060465;28;20052;-48
2021/09/11 04:50:09;;;;;;;65.93;40.33;;;16.70;99.90;;;;;;5059717;28;20068;-48
2021/09/11 04:52:35;;;;;;;59.75;41.08;;;16.70;99.90;;;;;;5058550;28;20053;-51
2021/09/11 04:55:01;;;;;;;61.08;39.97;;;16.60;99.90;;;;;;5057034;28;20053;-48
2021/09/11 04:57:28;;;;;;;60.35;38.95;;;16.60;99.90;;;;;;5058165;28;20053;-47
2021/09/11 04:59:55;;;;;;;57.20;38.65;;;16.60;99.90;;;;;;5062205;28;20045;-48
2021/09/11 05:02:21;;;;;;;59.90;38.88;;;16.60;99.90;;;;;;5067255;28;20052;-47
2021/09/11 05:04:47;;;;;;;63.35;39.15;;;16.60;99.90;;;;;;5064379;28;20063;-49
2021/09/11 05:07:13;;;;;;;56.75;35.65;;;16.60;99.90;;;;;;5058300;28;20143;-47
2021/09/11 05:09:39;;;;;;;62.20;40.20;;;16.60;99.90;;;;;;5059802;28;20048;-49
2021/09/11 05:12:06;;;;;;;56.42;37.15;;;16.50;99.90;;;;;;5054789;28;20052;-48
2021/09/11 05:14:32;;;;;;;58.22;37.38;;;16.50;99.90;;;;;;5057309;28;20063;-46
2021/09/11 05:16:58;;;;;;;58.55;38.30;;;16.50;99.90;;;;;;5057669;28;20056;-46
2021/09/11 05:19:24;;;;;;;58.08;38.65;;;16.40;99.90;;;;;;5059979;28;20500;-45
2021/09/11 05:21:51;;;;;;;58.88;37.05;;;16.40;99.90;;;;;;5060774;28;20048;-50
2021/09/11 05:24:17;;;;;;;58.90;37.17;;;16.30;99.90;;;;;;5063458;28;20127;-46
2021/09/11 05:26:43;;;;;;;55.72;37.38;;;16.30;99.90;;;;;;5058953;28;20084;-48
2021/09/11 05:29:09;;;;;;;57.30;37.00;;;16.20;99.90;;;;;;5060952;28;20057;-47
2021/09/11 05:31:35;;;;;;;55.70;37.25;;;16.20;99.90;;;;;;5061155;28;20059;-47
2021/09/11 05:34:02;;;;;;;64.65;37.95;;;16.20;99.90;;;;;;5057101;28;20056;-48
2021/09/11 05:36:28;;;;;;;58.50;36.63;;;16.10;99.90;;;;;;5059556;28;20052;-46
2021/09/11 05:38:54;;;;;;;58.67;37.53;;;16.20;99.90;;;;;;5058391;28;20051;-50
2021/09/11 05:41:20;;;;;;;56.30;35.85;;;16.10;99.90;;;;;;5051461;28;20057;-49
2021/09/11 05:43:46;;;;;;;56.20;35.42;;;16.20;99.90;;;;;;5054211;28;20068;-47
2021/09/11 05:46:13;;;;;;;52.45;35.05;;;16.30;99.90;;;;;;5054021;28;20059;-48
2021/09/11 05:48:39;;;;;;;54.03;36.15;;;16.30;99.90;;;;;;5055551;28;20480;-51
2021/09/11 05:51:05;;;;;;;53.60;34.42;;;16.30;99.90;;;;;;5048813;28;20053;-47
2021/09/11 05:53:32;;;;;;;51.40;35.25;;;16.40;99.90;;;;;;5052284;28;20489;-48
2021/09/11 05:55:58;;;;;;;43.33;31.58;;;16.50;99.90;;;;;;5059242;28;20131;-49
2021/09/11 05:58:24;;;;;;;50.90;33.85;;;16.60;99.90;;;;;;5056127;28;20060;-50
2021/09/11 06:00:50;;;;;;;46.47;32.88;;;16.60;99.90;;;;;;5056708;28;20114;-50
2021/09/11 06:03:16;;;;;;;48.58;34.47;;;16.60;99.90;;;;;;5051696;28;20055;-52
2021/09/11 06:05:42;;;;;;;41.55;31.58;;;16.60;99.90;;;;;;5054910;28;20563;-48
2021/09/11 06:08:08;;;;;;;44.97;32.65;;;16.60;99.90;;;;;;5050154;28;20057;-48
2021/09/11 06:10:34;;;;;;;41.55;32.40;;;16.70;99.90;;;;;;5055905;28;20048;-50
2021/09/11 06:13:01;;;;;;;38.95;30.40;;;16.70;99.90;;;;;;5041175;28;20136;-49
2021/09/11 06:15:29;;;;;;;42.72;33.50;;;16.80;99.90;;;;;;5055334;28;20053;-49
2021/09/11 06:17:55;;;;;;;48.67;35.70;;;16.80;99.90;;;;;;5056048;28;20052;-49
2021/09/11 06:20:21;;;;;;;104.18;91.15;;;16.70;99.90;;;;;;5052332;28;20048;-48
2021/09/11 06:22:48;;;;;;;55.67;39.60;;;16.70;99.90;;;;;;5057271;28;20056;-49
2021/09/11 06:25:14;;;;;;;46.63;36.47;;;16.80;99.90;;;;;;5052546;28;20456;-49
2021/09/11 06:27:44;;;;;;;47.20;37.15;;;16.80;99.90;;;;;;5056315;28;20052;-49
2021/09/11 06:30:11;;;;;;;50.17;37.35;;;16.80;99.90;;;;;;5056270;28;20239;-49
2021/09/11 06:32:37;;;;;;;47.50;38.47;;;16.80;99.90;;;;;;5054762;28;20522;-46
2021/09/11 06:35:05;;;;;;;51.63;38.38;;;16.80;99.90;;;;;;5049760;28;20052;-46
2021/09/11 06:37:32;;;;;;;76.85;63.42;;;16.90;99.90;;;;;;5061074;28;20071;-48
2021/09/11 06:39:58;;;;;;;116.57;104.32;;;16.90;99.90;;;;;;5053796;28;20505;-47
2021/09/11 06:42:24;;;;;;;70.82;57.55;;;17.00;99.90;;;;;;5056197;28;20059;-49
2021/09/11 06:44:50;;;;;;;50.28;37.33;;;17.10;99.90;;;;;;5053165;28;20040;-47
2021/09/11 06:47:16;;;;;;;55.50;47.20;;;17.10;99.90;;;;;;5052006;28;20049;-47
2021/09/11 06:49:45;;;;;;;55.53;40.45;;;17.20;99.90;;;;;;5048503;28;20067;-47
2021/09/11 06:52:11;;;;;;;46.28;36.90;;;17.20;99.90;;;;;;5053042;28;20089;-46
2021/09/11 06:54:37;;;;;;;42.30;34.30;;;17.20;99.90;;;;;;5057921;28;20083;-47
2021/09/11 06:57:04;;;;;;;48.50;40.45;;;17.20;99.90;;;;;;5061176;28;20056;-46
2021/09/11 06:59:30;;;;;;;46.17;36.35;;;17.20;99.90;;;;;;5048231;28;20642;-46
2021/09/11 07:01:56;;;;;;;41.22;35.15;;;17.30;99.90;;;;;;5054843;28;20110;-48
2021/09/11 07:04:23;;;;;;;48.03;36.92;;;17.30;99.90;;;;;;5060612;28;20048;-46
2021/09/11 07:06:49;;;;;;;40.28;34.88;;;17.30;99.90;;;;;;5058570;28;20500;-46
2021/09/11 07:09:15;;;;;;;42.88;35.28;;;17.30;99.90;;;;;;5058808;28;20413;-48
2021/09/11 07:11:41;;;;;;;56.10;49.92;;;17.40;99.90;;;;;;5053045;28;20055;-47
2021/09/11 07:14:08;;;;;;;46.08;39.85;;;17.50;99.90;;;;;;5059017;28;20052;-47
2021/09/11 07:16:34;;;;;;;64.28;54.42;;;17.50;99.90;;;;;;5058105;28;20040;-49
2021/09/11 07:19:00;;;;;;;52.50;45.38;;;17.60;99.90;;;;;;5060007;28;20134;-47
2021/09/11 07:21:26;;;;;;;48.42;40.90;;;17.70;99.90;;;;;;5059554;28;20421;-48
2021/09/11 07:23:53;;;;;;;55.20;39.70;;;17.70;99.90;;;;;;5059818;28;20052;-47
2021/09/11 07:26:19;;;;;;;42.25;37.70;;;17.70;99.90;;;;;;5053584;28;20067;-51
2021/09/11 07:28:49;;;;;;;44.95;38.88;;;17.60;99.90;;;;;;5067145;28;20076;-46
2021/09/11 07:31:16;;;;;;;56.05;44.55;;;17.60;99.90;;;;;;5062186;28;20076;-46
2021/09/11 07:33:43;;;;;;;44.78;38.17;;;17.70;99.90;;;;;;5079736;28;20053;-46
2021/09/11 07:36:09;;;;;;;42.63;35.83;;;17.60;99.90;;;;;;5050915;28;20060;-46
2021/09/11 07:38:36;;;;;;;51.25;38.28;;;17.50;99.90;;;;;;5057993;28;20053;-45
2021/09/11 07:41:03;;;;;;;44.05;35.97;;;17.60;99.90;;;;;;5057683;28;20126;-46
2021/09/11 07:43:30;;;;;;;46.10;37.97;;;17.70;99.90;;;;;;5065567;28;20578;-46
2021/09/11 07:45:57;;;;;;;44.92;38.13;;;17.70;99.90;;;;;;5066251;28;20058;-46
2021/09/11 07:48:24;;;;;;;42.95;37.22;;;17.80;99.90;;;;;;5065570;28;20052;-47
2021/09/11 07:50:50;;;;;;;43.75;35.78;;;17.80;99.90;;;;;;5058080;28;20056;-47
2021/09/11 07:53:16;;;;;;;44.38;35.28;;;17.90;99.90;;;;;;5064113;28;20536;-49
2021/09/11 07:55:42;;;;;;;43.72;36.53;;;17.80;99.90;;;;;;5063313;28;20772;-46
2021/09/11 07:58:08;;;;;;;42.13;36.00;;;17.80;99.90;;;;;;5063726;28;20055;-47
2021/09/11 08:00:35;;;;;;;40.33;35.20;;;17.80;99.90;;;;;;5068647;28;20055;-48
2021/09/11 08:03:01;;;;;;;45.83;40.38;;;17.80;99.90;;;;;;5067649;28;20622;-47
2021/09/11 08:05:27;;;;;;;67.75;57.85;;;17.80;99.90;;;;;;5063190;28;20048;-46
2021/09/11 08:07:54;;;;;;;52.47;45.28;;;17.80;99.90;;;;;;5068715;28;20675;-46
2021/09/11 08:10:21;;;;;;;46.53;40.03;;;17.70;99.90;;;;;;5055014;28;20064;-46
2021/09/11 08:12:48;;;;;;;55.17;45.42;;;17.70;99.90;;;;;;5064112;28;20048;-49
2021/09/11 08:15:16;;;;;;;48.30;38.50;;;17.70;99.90;;;;;;5070036;28;20158;-45
2021/09/11 08:17:43;;;;;;;51.45;39.60;;;17.70;99.90;;;;;;5069867;28;20052;-46
2021/09/11 08:20:09;;;;;;;47.58;41.63;;;17.70;99.90;;;;;;5069719;28;20070;-45
2021/09/11 08:22:35;;;;;;;51.72;41.42;;;17.70;99.90;;;;;;5067795;28;20416;-47
2021/09/11 08:25:02;;;;;;;49.80;42.40;;;17.60;99.90;;;;;;5062823;28;20063;-47
2021/09/11 08:27:28;;;;;;;44.60;38.58;;;17.60;99.90;;;;;;5068783;28;20055;-46
2021/09/11 08:29:55;;;;;;;50.08;40.55;;;17.60;99.90;;;;;;5065790;28;20136;-46
2021/09/11 08:32:21;;;;;;;53.72;42.83;;;17.60;99.90;;;;;;5090606;28;20417;-48
2021/09/11 08:34:47;;;;;;;103.28;92.20;;;17.50;99.90;;;;;;5062509;28;20056;-49
2021/09/11 08:37:13;;;;;;;63.42;55.28;;;17.60;99.90;;;;;;5067234;28;20561;-47
2021/09/11 08:39:39;;;;;;;57.92;45.22;;;17.60;99.90;;;;;;5059691;28;20110;-44
2021/09/11 08:42:05;;;;;;;60.67;51.33;;;17.60;99.90;;;;;;5050147;28;20060;-46
2021/09/11 08:44:31;;;;;;;53.30;41.15;;;17.70;99.90;;;;;;5068860;28;20125;-45
2021/09/11 08:46:57;;;;;;;50.13;42.33;;;17.80;99.90;;;;;;5074281;28;20055;-47
2021/09/11 08:49:24;;;;;;;52.67;41.65;;;17.80;99.90;;;;;;5074833;28;20225;-49
2021/09/11 08:51:51;;;;;;;50.38;43.25;;;17.90;99.90;;;;;;5068376;28;20576;-47
2021/09/11 08:54:20;;;;;;;48.47;40.60;;;18.10;99.90;;;;;;5054443;28;20099;-45
2021/09/11 08:56:48;;;;;;;52.35;44.40;;;18.20;99.90;;;;;;5063371;28;20153;-51
2021/09/11 08:59:17;;;;;;;51.45;45.92;;;18.40;99.90;;;;;;5098506;28;20049;-46
2021/09/11 09:01:59;;;;;;;47.58;41.08;;;18.50;99.90;;;;;;5075869;28;20093;-46
2021/09/11 09:04:42;;;;;;;38.80;34.15;;;18.60;99.90;;;;;;5068680;28;20053;-46
2021/09/11 09:07:08;;;;;;;35.67;31.73;;;18.60;99.90;;;;;;5067514;28;20054;-46
2021/09/11 09:09:40;;;;;;;37.30;33.30;;;18.50;99.90;;;;;;5058305;28;20513;-45
2021/09/11 09:12:14;;;;;;;36.45;32.45;;;18.50;99.90;;;;;;5060072;28;20140;-50
2021/09/11 09:14:58;;;;;;;39.42;35.42;;;18.40;99.90;;;;;;5068344;28;20057;-45
2021/09/11 09:17:38;;;;;;;38.22;34.33;;;18.50;99.90;;;;;;5060775;28;20059;-45
2021/09/11 09:20:15;;;;;;;35.65;31.98;;;18.60;99.90;;;;;;5068549;28;20135;-48
2021/09/11 09:22:43;;;;;;;39.17;34.20;;;18.60;99.90;;;;;;5052796;28;20751;-46
2021/09/11 09:25:24;;;;;;;39.38;35.17;;;18.70;99.90;;;;;;5069013;28;20059;-48
2021/09/11 09:27:59;;;;;;;41.47;35.73;;;18.80;99.90;;;;;;5065370;28;20137;-46
2021/09/11 09:30:41;;;;;;;37.92;34.00;;;18.80;99.90;;;;;;5064012;28;20052;-47
2021/09/11 09:33:09;;;;;;;43.13;38.42;;;18.70;99.90;;;;;;5053553;28;20064;-48
2021/09/11 09:35:35;;;;;;;42.72;38.22;;;18.60;99.90;;;;;;5053909;28;20075;-47
2021/09/11 09:38:08;;;;;;;49.33;44.47;;;18.60;99.90;;;;;;5058366;28;20048;-47
2021/09/11 09:40:55;;;;;;;42.30;37.95;;;18.60;99.90;;;;;;5058006;28;20056;-46
2021/09/11 09:43:29;;;;;;;42.30;37.75;;;18.60;99.90;;;;;;5035281;28;20052;-46
2021/09/11 09:46:06;;;;;;;41.85;37.30;;;18.70;99.90;;;;;;5056856;28;20048;-46
2021/09/11 09:48:36;;;;;;;37.38;33.50;;;18.60;99.90;;;;;;5076568;28;20082;-46
2021/09/11 09:51:04;;;;;;;39.80;35.25;;;18.60;99.90;;;;;;5052939;28;20101;-48
2021/09/11 09:53:32;;;;;;;41.85;37.45;;;18.80;99.90;;;;;;5049523;28;20066;-47
2021/09/11 09:55:59;;;;;;;39.90;35.60;;;18.80;99.90;;;;;;5057908;28;20053;-47
2021/09/11 09:58:25;;;;;;;37.45;33.45;;;18.80;99.90;;;;;;5058795;28;20114;-46
2021/09/11 10:00:51;;;;;;;39.05;35.10;;;18.90;99.90;;;;;;5056521;28;20059;-47
2021/09/11 10:03:18;;;;;;;39.75;35.75;;;19.00;99.90;;;;;;5052753;28;20052;-48
2021/09/11 10:05:49;;;;;;;37.70;33.92;;;19.00;99.90;;;;;;5061850;28;20055;-45
2021/09/11 10:08:16;;;;;;;36.63;32.92;;;19.20;99.90;;;;;;5059410;28;20041;-45
2021/09/11 10:10:48;;;;;;;38.53;34.53;;;19.20;99.90;;;;;;5056362;28;20052;-46
2021/09/11 10:13:23;;;;;;;37.88;34.08;;;19.30;99.90;;;;;;5070821;28;20134;-46
2021/09/11 10:15:51;;;;;;;37.20;33.13;;;19.20;99.90;;;;;;5074827;28;20092;-45
2021/09/11 10:18:35;;;;;;;38.15;34.05;;;19.20;99.90;;;;;;5066026;28;20155;-46
2021/09/11 10:21:28;;;;;;;36.67;32.88;;;19.30;99.90;;;;;;5071061;28;20056;-47
2021/09/11 10:23:56;;;;;;;38.10;33.95;;;19.40;99.90;;;;;;5063379;28;20054;-46
2021/09/11 10:26:42;;;;;;;38.10;33.88;;;19.40;99.90;;;;;;5065614;28;20056;-47
2021/09/11 10:29:30;;;;;;;36.38;32.88;;;19.40;99.90;;;;;;5051617;28;20082;-47
2021/09/11 10:31:59;;;;;;;36.03;32.22;;;19.60;99.90;;;;;;5066477;28;20063;-46
2021/09/11 10:35:00;;;;;;;49.97;44.65;;;19.70;99.90;;;;;;5067379;28;20080;-50
2021/09/11 10:37:43;;;;;;;38.97;35.00;;;19.90;99.90;;;;;;5021323;28;20932;-46
2021/09/11 10:40:30;;;;;;;37.03;33.13;;;20.00;99.90;;;;;;5005886;28;20057;-46
2021/09/11 10:43:28;;;;;;;41.28;36.67;;;20.10;99.90;;;;;;5020002;28;20077;-46
2021/09/11 10:45:55;;;;;;;38.17;33.53;;;20.20;99.90;;;;;;5016810;28;20104;-49
2021/09/11 10:48:35;;;;;;;34.40;30.20;;;20.40;99.90;;;;;;5019974;28;20065;-49
2021/09/11 10:51:17;;;;;;;35.03;31.63;;;20.50;99.90;;;;;;5020575;28;20197;-46
2021/09/11 10:54:22;;;;;;;35.28;31.80;;;20.60;99.90;;;;;;5020239;28;20176;-45
2021/09/11 10:57:03;;;;;;;33.42;29.70;;;20.50;99.90;;;;;;4962311;28;20101;-47
2021/09/11 10:59:31;;;;;;;33.95;30.40;;;20.50;99.90;;;;;;4957732;28;20066;-48
2021/09/11 11:02:18;;;;;;;32.03;28.92;;;20.60;99.90;;;;;;4963062;28;20054;-48
2021/09/11 11:04:47;;;;;;;34.42;30.90;;;20.50;99.90;;;;;;4945259;28;20061;-46
2021/09/11 11:07:17;;;;;;;35.33;30.75;;;20.40;99.90;;;;;;4961287;28;20054;-45
2021/09/11 11:09:49;;;;;;;31.52;28.15;;;20.40;99.90;;;;;;4961240;28;20092;-46
2021/09/11 11:12:21;;;;;;;31.42;28.23;;;20.40;99.90;;;;;;4972306;28;20057;-46
2021/09/11 11:14:47;;;;;;;33.42;30.00;;;20.20;99.90;;;;;;5020119;28;20128;-45
2021/09/11 11:17:15;;;;;;;30.92;27.73;;;20.20;99.90;;;;;;5019166;28;20053;-46
2021/09/11 11:19:44;;;;;;;30.92;27.63;;;20.10;99.90;;;;;;5021125;28;20088;-46
2021/09/11 11:22:13;;;;;;;30.55;27.63;;;20.10;99.90;;;;;;5018074;28;20065;-46
2021/09/11 11:24:42;;;;;;;30.23;27.13;;;20.20;99.90;;;;;;5018258;28;20084;-46
2021/09/11 11:27:14;;;;;;;29.08;26.13;;;20.40;99.90;;;;;;5019359;28;20077;-47
2021/09/11 11:29:42;;;;;;;28.63;25.85;;;20.40;99.90;;;;;;5017903;28;20131;-44
2021/09/11 11:32:08;;;;;;;29.48;26.48;;;20.40;99.90;;;;;;5038135;28;20056;-47
2021/09/11 11:34:36;;;;;;;33.42;27.90;;;20.40;99.90;;;;;;5067110;28;20053;-47
2021/09/11 11:37:06;;;;;;;28.27;25.33;;;20.20;99.90;;;;;;5070325;28;20109;-48
2021/09/11 11:39:33;;;;;;;28.83;25.90;;;20.10;99.90;;;;;;5067398;28;20154;-46
2021/09/11 11:42:04;;;;;;;29.80;26.50;;;20.00;99.90;;;;;;5069791;28;20052;-45
2021/09/11 11:44:31;;;;;;;28.70;25.75;;;19.90;99.90;;;;;;5068017;28;20048;-46
2021/09/11 11:47:23;;;;;;;28.85;25.17;;;19.80;99.90;;;;;;5068977;28;20048;-46
2021/09/11 11:49:50;;;;;;;;;;;20.00;99.90;;;;;;5060565;28;20572;-47
2021/09/11 11:52:18;;;;;;;30.23;26.95;;;20.00;99.90;;;;;;5068879;28;20350;-47
2021/09/11 11:54:46;;;;;;;29.30;25.95;;;19.90;99.90;;;;;;5069488;28;20051;-44
2021/09/11 11:57:13;;;;;;;28.55;25.75;;;19.90;99.90;;;;;;5069221;28;20137;-46
2021/09/11 11:59:40;;;;;;;31.50;26.45;;;19.90;99.90;;;;;;5064712;28;20126;-46
2021/09/11 12:02:21;;;;;;;29.40;26.00;;;19.90;99.90;;;;;;5061907;28;20056;-45
2021/09/11 12:04:49;;;;;;;28.60;25.70;;;20.10;99.90;;;;;;5064529;28;20064;-46
2021/09/11 12:07:32;;;;;;;28.10;25.30;;;20.40;99.90;;;;;;5067481;28;20056;-46
2021/09/11 12:10:00;;;;;;;31.50;25.15;;;20.80;99.90;;;;;;5094117;28;20492;-45
2021/09/11 12:12:29;;;;;;;29.10;26.08;;;21.00;99.90;;;;;;5067323;28;20102;-46
2021/09/11 12:14:56;;;;;;;28.95;26.05;;;21.20;99.90;;;;;;5063667;28;20103;-45
2021/09/11 12:17:22;;;;;;;27.05;24.30;;;21.50;99.90;;;;;;5066152;28;20051;-47
2021/09/11 12:19:48;;;;;;;34.80;31.33;;;21.40;99.90;;;;;;5065579;28;20122;-47
2021/09/11 12:22:19;;;;;;;26.80;23.88;;;21.30;99.90;;;;;;5066768;28;20071;-45
2021/09/11 12:24:45;;;;;;;27.88;24.25;;;21.20;99.90;;;;;;5068938;28;20485;-47
2021/09/11 12:27:13;;;;;;;28.33;25.35;;;21.10;99.90;;;;;;5067500;28;20060;-46
2021/09/11 12:29:39;;;;;;;26.98;24.27;;;20.90;99.90;;;;;;5067651;28;20048;-44
2021/09/11 12:32:17;;;;;;;34.45;31.08;;;20.80;99.90;;;;;;5066614;28;20143;-45